Time;durP1;ratioP1;P1;durP2;ratioP2;P2;SDS_P1;SDS_P2;PMS_P1;PMS_P2;Temp;Humidity;BMP_temperature;BMP_pressure;BME280_temperature;BME280_humidity;BME280_pressure;Samples;Min_cycle;Max_cycle;Signal;HPM_P1;HPM_P2
2022/08/04 00:01:21;;;;;;;;;;;21.30;99.90;;;;;;5093423;28;19908;-65
2022/08/04 00:03:51;;;;;;;;;;;21.20;99.90;;;;;;5093821;28;20388;-65
2022/08/04 00:06:22;;;;;;;;;;;21.20;99.90;;;;;;5093431;28;19912;-64
2022/08/04 00:08:49;;;;;;;;;;;21.10;99.90;;;;;;5093488;28;19908;-65
2022/08/04 00:11:20;;;;;;;;;;;21.10;99.90;;;;;;5075472;28;19977;-65
2022/08/04 00:13:54;;;;;;;;;;;21.00;99.90;;;;;;5093459;28;19940;-65
2022/08/04 00:16:21;;;;;;;;;;;21.00;99.90;;;;;;5093646;28;19947;-65
2022/08/04 00:18:51;;;;;;;;;;;21.00;99.90;;;;;;5093685;28;20363;-65
2022/08/04 00:21:18;;;;;;;;;;;20.90;99.90;;;;;;5093660;28;20375;-65
2022/08/04 00:23:44;;;;;;;;;;;20.90;99.90;;;;;;5093629;28;19908;-65
2022/08/04 00:26:10;;;;;;;;;;;20.90;99.90;;;;;;5093593;28;20370;-65
2022/08/04 00:28:37;;;;;;;;;;;20.80;99.90;;;;;;5093588;28;19915;-65
2022/08/04 00:31:04;;;;;;;;;;;20.80;99.90;;;;;;5093576;28;19915;-65
2022/08/04 00:33:30;;;;;;;;;;;20.80;99.90;;;;;;5093607;28;19915;-65
2022/08/04 00:35:56;;;;;;;;;;;20.80;99.90;;;;;;5093536;28;20370;-65
2022/08/04 00:38:22;;;;;;;;;;;20.70;99.90;;;;;;5093799;28;19923;-65
2022/08/04 00:40:59;;;;;;;;;;;20.70;99.90;;;;;;5075128;28;20000;-65
2022/08/04 00:43:33;;;;;;;;;;;20.70;99.90;;;;;;5093178;28;19908;-65
2022/08/04 00:46:19;;;;;;;;;;;20.70;99.90;;;;;;5092889;28;20332;-65
2022/08/04 00:49:04;;;;;;;;;;;20.60;99.90;;;;;;5093022;28;20378;-64
2022/08/04 00:51:43;;;;;;;;;;;20.60;99.90;;;;;;5092937;28;20290;-65
2022/08/04 00:54:15;;;;;;;;;;;20.60;99.90;;;;;;5097033;28;19958;-65
2022/08/04 00:57:00;;;;;;;;;;;20.60;99.90;;;;;;5097007;28;19908;-65
2022/08/04 01:02:24;;;;;;;;;;;20.60;99.90;;;;;;5071059;28;19913;-66
2022/08/04 01:05:02;;;;;;;;;;;20.60;99.90;;;;;;5070915;28;19913;-66
2022/08/04 01:07:47;;;;;;;;;;;20.50;99.90;;;;;;5071129;28;20270;-66
2022/08/04 01:10:32;;;;;;;;;;;20.60;99.90;;;;;;5070822;28;20449;-66
2022/08/04 01:13:18;;;;;;;;;;;20.60;99.90;;;;;;5070775;28;20409;-66
2022/08/04 01:15:52;;;;;;;;;;;20.60;99.90;;;;;;5070731;28;19908;-66
2022/08/04 01:18:24;;;;;;;;;;;20.70;99.90;;;;;;5070903;28;20007;-66
2022/08/04 01:21:04;;;;;;;;;;;20.70;99.90;;;;;;5070511;28;19962;-66
2022/08/04 01:26:32;;;;;;;;;;;20.70;99.90;;;;;;5091230;27;20298;-65
2022/08/04 01:29:08;;;;;;;;;;;20.70;99.90;;;;;;5091210;28;20286;-65
2022/08/04 01:31:40;;;;;;;;;;;20.80;99.90;;;;;;5091347;28;20398;-65
2022/08/04 01:34:07;;;;;;;;;;;20.70;99.90;;;;;;5091026;28;19915;-65
2022/08/04 01:36:34;;;;;;;;;;;20.70;99.90;;;;;;5091020;28;19908;-65
2022/08/04 01:39:39;;;;;;;;;;;20.70;99.90;;;;;;5091189;28;19912;-65
2022/08/04 01:41:45;;;;;;;;;;;20.70;99.90;;;;;;5090740;28;19912;-65
2022/08/04 01:44:12;;;;;;;;;;;20.70;99.90;;;;;;5090804;28;19957;-65
2022/08/04 01:46:39;;;;;;;;;;;20.70;99.90;;;;;;5091057;28;19912;-65
2022/08/04 01:49:05;;;;;;;;;;;20.70;99.90;;;;;;5090800;28;19908;-66
2022/08/04 01:51:34;;;;;;;;;;;20.60;99.90;;;;;;5090710;28;20390;-65
2022/08/04 01:54:00;;;;;;;;;;;20.70;99.90;;;;;;5090923;28;19919;-65
2022/08/04 01:56:27;;;;;;;;;;;20.70;99.90;;;;;;5090673;28;19912;-65
2022/08/04 01:58:55;;;;;;;;;;;20.70;99.90;;;;;;5090589;28;19958;-65
2022/08/04 02:01:21;;;;;;;;;;;20.70;99.90;;;;;;5090806;28;19916;-65
2022/08/04 02:03:46;;;;;;;;;;;20.70;99.90;;;;;;5090376;28;20366;-65
2022/08/04 02:06:30;;;;;;;;;;;20.70;99.90;;;;;;5090697;28;19909;-65
2022/08/04 02:09:02;;;;;;;;;;;20.70;99.90;;;;;;5090363;28;19951;-65
2022/08/04 02:11:28;;;;;;;;;;;20.60;99.90;;;;;;5090577;28;19909;-65
2022/08/04 02:14:05;;;;;;;;;;;20.60;99.90;;;;;;5090549;28;19974;-65
2022/08/04 02:16:38;;;;;;;;;;;20.50;99.90;;;;;;5090551;28;19958;-65
2022/08/04 02:19:23;;;;;;;;;;;20.50;99.90;;;;;;5089018;28;19919;-65
2022/08/04 02:21:54;;;;;;;;;;;20.50;99.90;;;;;;5090238;28;19909;-65
2022/08/04 02:24:20;;;;;;;;;;;20.40;99.90;;;;;;5095012;28;20507;-65
2022/08/04 02:26:48;;;;;;;;;;;20.40;99.90;;;;;;5110413;28;19912;-65
2022/08/04 02:29:16;;;;;;;;;;;20.30;99.90;;;;;;5092188;28;19912;-65
2022/08/04 02:31:47;;;;;;;;;;;20.30;99.90;;;;;;5110590;28;19931;-65
2022/08/04 02:36:51;;;;;;;;;;;20.20;99.90;;;;;;5071212;28;19913;-66
2022/08/04 02:39:19;;;;;;;;;;;20.20;99.90;;;;;;5071207;28;20442;-66
2022/08/04 02:41:45;;;;;;;;;;;20.20;99.90;;;;;;5070920;28;19935;-66
2022/08/04 02:44:12;;;;;;;;;;;20.10;99.90;;;;;;5070863;28;19944;-66
2022/08/04 02:46:38;;;;;;;;;;;20.10;99.90;;;;;;5071076;28;19909;-66
2022/08/04 02:49:04;;;;;;;;;;;20.10;99.90;;;;;;5071045;28;19915;-65
2022/08/04 02:51:33;;;;;;;;;;;20.10;99.90;;;;;;5071004;28;20377;-66
2022/08/04 02:53:59;;;;;;;;;;;20.00;99.90;;;;;;5071039;28;20318;-65
2022/08/04 02:56:27;;;;;;;;;;;20.00;99.90;;;;;;5086460;28;20007;-65
2022/08/04 02:59:01;;;;;;;;;;;20.00;99.90;;;;;;5070817;28;19920;-66
2022/08/04 03:01:26;;;;;;;;;;;19.90;99.90;;;;;;5070775;28;20364;-65
2022/08/04 03:04:12;;;;;;;;;;;19.90;99.90;;;;;;5070738;28;19916;-65
2022/08/04 03:06:45;;;;;;;;;;;19.90;99.90;;;;;;5070384;28;19961;-65
2022/08/04 03:09:30;;;;;;;;;;;19.80;99.90;;;;;;5070420;28;19909;-65
2022/08/04 03:12:16;;;;;;;;;;;19.80;99.90;;;;;;5070335;28;20031;-65
2022/08/04 03:15:01;;;;;;;;;;;19.70;99.90;;;;;;5070054;28;19920;-66
2022/08/04 03:17:47;;;;;;;;;;;19.60;99.90;;;;;;5070209;28;20367;-66
2022/08/04 03:20:18;;;;;;;;;;;19.60;99.90;;;;;;5070131;28;19994;-66
2022/08/04 03:22:54;;;;;;;;;;;19.60;99.90;;;;;;5070372;28;19909;-66
2022/08/04 03:25:30;;;;;;;;;;;19.50;99.90;;;;;;5070314;28;19959;-66
2022/08/04 03:28:16;;;;;;;;;;;19.50;99.90;;;;;;5070190;28;20279;-66
2022/08/04 03:31:01;;;;;;;;;;;19.50;99.90;;;;;;5069849;28;19909;-66
2022/08/04 03:33:38;;;;;;;;;;;19.40;99.90;;;;;;5069747;28;19908;-66
2022/08/04 03:36:23;;;;;;;;;;;19.40;99.90;;;;;;5083649;28;20305;-66
2022/08/04 03:39:01;;;;;;;;;;;19.30;99.90;;;;;;5090263;28;19909;-65
2022/08/04 03:41:34;;;;;;;;;;;19.30;99.90;;;;;;5090236;28;19909;-65
2022/08/04 03:44:19;;;;;;;;;;;19.30;99.90;;;;;;5089905;28;19940;-66
2022/08/04 03:49:43;;;;;;;;;;;19.20;99.90;;;;;;5071173;28;19912;-65
2022/08/04 03:55:27;;;;;;;;;;;19.20;99.90;;;;;;5070696;28;19912;-65
2022/08/04 04:00:43;;;;;;;;;;;19.20;99.90;;;;;;5071111;28;19919;-66
2022/08/04 04:03:28;;;;;;;;;;;19.20;99.90;;;;;;5070896;28;19919;-66
2022/08/04 04:06:01;;;;;;;;;;;19.30;99.90;;;;;;5070882;28;19908;-65
2022/08/04 04:08:37;;;;;;;;;;;19.30;99.90;;;;;;5071109;28;20385;-66
2022/08/04 04:11:22;;;;;;;;;;;19.40;99.90;;;;;;5071103;28;20422;-66
2022/08/04 04:13:55;;;;;;;;;;;19.50;99.90;;;;;;5070768;28;20286;-66
2022/08/04 04:16:30;;;;;;;;;;;19.60;99.90;;;;;;5070993;28;20371;-66
2022/08/04 04:19:07;;;;;;;;;;;19.70;99.90;;;;;;5070631;28;20026;-66
2022/08/04 04:21:52;;;;;;;;;;;19.80;99.90;;;;;;5069304;28;19966;-67
2022/08/04 04:24:32;;;;;;;;;;;19.90;99.90;;;;;;5070485;28;19916;-66
2022/08/04 04:27:05;;;;;;;;;;;19.90;99.90;;;;;;5070769;28;19909;-67
2022/08/04 04:29:50;;;;;;;;;;;20.00;99.90;;;;;;5070708;28;19916;-67
2022/08/04 04:35:17;;;;;;;;;;;20.00;99.90;;;;;;5071162;28;19913;-66
2022/08/04 04:37:59;;;;;;;;;;;20.10;99.90;;;;;;5086578;28;20342;-65
2022/08/04 04:40:44;;;;;;;;;;;20.10;99.90;;;;;;5071144;28;19916;-65
2022/08/04 04:43:15;;;;;;;;;;;20.10;99.90;;;;;;5070800;28;19909;-65
2022/08/04 04:46:00;;;;;;;;;;;20.20;99.90;;;;;;5086602;28;19908;-65
2022/08/04 04:48:46;;;;;;;;;;;20.20;99.90;;;;;;5070781;28;19912;-65
2022/08/04 04:51:17;;;;;;;;;;;20.30;99.90;;;;;;5070622;28;19955;-65
2022/08/04 04:53:52;;;;;;;;;;;20.40;99.90;;;;;;5070810;28;19966;-65
2022/08/04 04:56:24;;;;;;;;;;;20.50;99.90;;;;;;5070486;28;19924;-64
2022/08/04 04:58:51;;;;;;;;;;;20.50;99.90;;;;;;5070455;28;20410;-64
2022/08/04 05:01:24;;;;;;;;;;;20.50;99.90;;;;;;5070669;28;19916;-65
2022/08/04 05:04:00;;;;;;;;;;;20.60;99.90;;;;;;5070669;28;20330;-65
2022/08/04 05:06:41;;;;;;;;;;;20.70;99.90;;;;;;5070684;28;20054;-65
2022/08/04 05:09:26;;;;;;;;;;;20.70;99.90;;;;;;5070560;28;20426;-65
2022/08/04 05:12:12;;;;;;;;;;;20.80;99.90;;;;;;5070274;28;20260;-65
2022/08/04 05:14:42;;;;;;;;;;;20.90;99.90;;;;;;5070101;28;20019;-65
2022/08/04 05:17:14;;;;;;;;;;;20.90;99.90;;;;;;5086181;28;20367;-65
2022/08/04 05:19:46;;;;;;;;;;;20.90;99.90;;;;;;5070160;28;19991;-65
2022/08/04 05:22:19;;;;;;;;;;;21.00;99.90;;;;;;5070327;28;20410;-65
2022/08/04 05:24:45;;;;;;;;;;;21.00;99.90;;;;;;5069976;28;19923;-64
2022/08/04 05:27:14;;;;;;;;;;;21.10;99.90;;;;;;5069920;28;19909;-65
2022/08/04 05:29:45;;;;;;;;;;;21.10;99.90;;;;;;5068641;28;20379;-65
2022/08/04 05:32:11;;;;;;;;;;;21.20;99.90;;;;;;5069799;28;19939;-64
2022/08/04 05:34:40;;;;;;;;;;;21.40;99.90;;;;;;5085061;28;19960;-65
2022/08/04 05:37:07;;;;;;;;;;;21.60;99.90;;;;;;5069732;28;20307;-65
2022/08/04 05:39:41;;;;;;;;;;;21.80;99.90;;;;;;5069918;28;20284;-64
2022/08/04 05:42:08;;;;;;;;;;;22.20;99.90;;;;;;5069857;28;19916;-65
2022/08/04 05:44:34;;;;;;;;;;;22.60;99.90;;;;;;5066581;28;20396;-65
2022/08/04 05:47:01;;;;;;;;;;;23.00;99.90;;;;;;5056603;28;20358;-65
2022/08/04 05:49:27;;;;;;;;;;;24.30;99.90;;;;;;5056353;28;19960;-65
2022/08/04 05:51:54;;;;;;;;;;;26.10;99.90;;;;;;5056221;28;20359;-65
2022/08/04 05:54:20;;;;;;;;;;;28.10;99.90;;;;;;5056099;28;19912;-65
2022/08/04 05:56:46;;;;;;;;;;;29.50;99.90;;;;;;5071620;28;19998;-65
2022/08/04 05:59:12;;;;;;;;;;;30.10;99.90;;;;;;5056124;28;19909;-65
2022/08/04 06:01:39;;;;;;;;;;;29.60;99.90;;;;;;5056284;28;20385;-65
2022/08/04 06:04:04;;;;;;;;;;;;;;;;;;5055720;28;19916;-65
2022/08/04 06:06:31;;;;;;;;;;;28.90;99.90;;;;;;5056019;28;19909;-66
2022/08/04 06:08:56;;;;;;;;;;;30.20;99.90;;;;;;5056086;28;19909;-65
2022/08/04 06:11:23;;;;;;;;;;;31.20;99.90;;;;;;5056112;28;20398;-66
2022/08/04 06:13:52;;;;;;;;;;;32.00;98.20;;;;;;5055740;28;19919;-65
2022/08/04 06:16:21;;;;;;;;;;;31.70;97.90;;;;;;5055991;28;19948;-65
2022/08/04 06:18:47;;;;;;;;;;;32.40;96.80;;;;;;5055919;28;19909;-66
2022/08/04 06:21:13;;;;;;;;;;;32.70;95.60;;;;;;5055587;28;20371;-66
2022/08/04 06:23:40;;;;;;;;;;;32.30;95.60;;;;;;5055789;28;19935;-66
2022/08/04 06:26:07;;;;;;;;;;;32.10;95.70;;;;;;5055554;28;19909;-66
2022/08/04 06:28:33;;;;;;;;;;;32.50;94.90;;;;;;5055806;28;19913;-66
2022/08/04 06:31:02;;;;;;;;;;;32.80;94.80;;;;;;5055643;28;20364;-66
2022/08/04 06:33:33;;;;;;;;;;;33.30;93.80;;;;;;5062483;28;20394;-66
2022/08/04 06:36:03;;;;;;;;;;;33.30;93.80;;;;;;5075449;28;19970;-66
2022/08/04 06:38:30;;;;;;;;;;;33.70;92.00;;;;;;5075338;28;19915;-66
2022/08/04 06:40:57;;;;;;;;;;;34.10;91.30;;;;;;5075456;28;19908;-65
2022/08/04 06:43:23;;;;;;;;;;;34.00;91.50;;;;;;5075536;28;19916;-66
2022/08/04 06:45:49;;;;;;;;;;;34.40;90.50;;;;;;5075421;28;19908;-66
2022/08/04 06:48:15;;;;;;;;;;;34.40;89.80;;;;;;5075409;28;19958;-66
2022/08/04 06:50:42;;;;;;;;;;;33.70;90.50;;;;;;5075025;28;19915;-66
2022/08/04 06:53:08;;;;;;;;;;;33.60;89.30;;;;;;5074919;28;20289;-66
2022/08/04 06:55:34;;;;;;;;;;;33.80;89.80;;;;;;5075055;28;19991;-66
2022/08/04 06:58:01;;;;;;;;;;;35.30;84.80;;;;;;5055964;28;19908;-66
2022/08/04 07:00:26;;;;;;;;;;;35.70;82.20;;;;;;5074840;28;19908;-66
2022/08/04 07:02:52;;;;;;;;;;;35.30;82.90;;;;;;5074928;28;19909;-66
2022/08/04 07:05:19;;;;;;;;;;;34.90;83.20;;;;;;5075035;28;20038;-66
2022/08/04 07:07:45;;;;;;;;;;;35.90;80.00;;;;;;5074857;28;19909;-66
2022/08/04 07:10:10;;;;;;;;;;;35.60;78.70;;;;;;5074641;28;20007;-66
2022/08/04 07:12:37;;;;;;;;;;;34.90;78.70;;;;;;5074805;28;19913;-66
2022/08/04 07:15:03;;;;;;;;;;;35.30;76.30;;;;;;5074758;28;20391;-66
2022/08/04 07:17:29;;;;;;;;;;;35.80;74.30;;;;;;5074764;28;20287;-66
2022/08/04 07:19:55;;;;;;;;;;;35.50;74.60;;;;;;5056647;28;19908;-66
2022/08/04 07:22:20;;;;;;;;;;;35.30;74.30;;;;;;5074713;28;19908;-66
2022/08/04 07:24:46;;;;;;;;;;;35.30;73.80;;;;;;5074603;28;19914;-64
2022/08/04 07:27:11;;;;;;;;;;;35.30;72.60;;;;;;5074637;28;20305;-66
2022/08/04 07:29:37;;;;;;;;;;;34.40;74.10;;;;;;5074336;28;19908;-66
2022/08/04 07:32:03;;;;;;;;;;;34.70;73.50;;;;;;5074561;28;19916;-66
2022/08/04 07:34:29;;;;;;;;;;;34.90;73.30;;;;;;5073974;28;20311;-66
2022/08/04 07:36:56;;;;;;;;;;;35.10;72.50;;;;;;5074444;28;19916;-67
2022/08/04 07:39:23;;;;;;;;;;;35.40;74.10;;;;;;5074108;28;19956;-66
2022/08/04 07:41:49;;;;;;;;;;;35.10;73.40;;;;;;5056187;28;19912;-66
2022/08/04 07:44:15;;;;;;;;;;;35.00;75.00;;;;;;5074180;28;20389;-66
2022/08/04 07:46:41;;;;;;;;;;;35.40;72.30;;;;;;5074037;28;20298;-66
2022/08/04 07:49:07;;;;;;;;;;;35.50;70.50;;;;;;5073933;28;19909;-66
2022/08/04 07:51:34;;;;;;;;;;;35.50;72.70;;;;;;5073896;28;19909;-66
2022/08/04 07:54:02;;;;;;;;;;;36.00;69.80;;;;;;5073920;28;19939;-66
2022/08/04 07:56:27;;;;;;;;;;;36.60;66.60;;;;;;5073874;28;20324;-66
2022/08/04 07:58:53;;;;;;;;;;;36.60;66.20;;;;;;5074073;28;19943;-66
2022/08/04 08:01:19;;;;;;;;;;;36.30;67.80;;;;;;5073850;28;20374;-66
2022/08/04 08:03:45;;;;;;;;;;;35.80;68.40;;;;;;5073931;28;20362;-66
2022/08/04 08:06:11;;;;;;;;;;;35.70;71.30;;;;;;5073803;28;20358;-66
2022/08/04 08:08:37;;;;;;;;;;;35.10;70.50;;;;;;5073414;28;19995;-66
2022/08/04 08:11:03;;;;;;;;;;;35.00;71.40;;;;;;5073553;28;19923;-66
2022/08/04 08:13:29;;;;;;;;;;;35.30;71.20;;;;;;5073521;28;19912;-66
2022/08/04 08:15:55;;;;;;;;;;;34.90;71.10;;;;;;5073604;28;19909;-66
2022/08/04 08:18:20;;;;;;;;;;;34.50;71.10;;;;;;5073619;28;20321;-66
2022/08/04 08:20:46;;;;;;;;;;;34.70;71.20;;;;;;5073741;28;19954;-66
2022/08/04 08:23:14;;;;;;;;;;;35.50;72.40;;;;;;5073416;28;19914;-66
2022/08/04 08:25:39;;;;;;;;;;;35.20;70.60;;;;;;5073445;28;19912;-65
2022/08/04 08:28:05;;;;;;;;;;;35.40;70.60;;;;;;5073689;28;19958;-67
2022/08/04 08:30:31;;;;;;;;;;;35.60;68.60;;;;;;5055728;28;19916;-66
2022/08/04 08:32:58;;;;;;;;;;;35.20;67.90;;;;;;5054942;28;20286;-66
2022/08/04 08:35:24;;;;;;;;;;;35.20;68.10;;;;;;5073533;28;19927;-66
2022/08/04 08:37:55;;;;;;;;;;;34.50;70.10;;;;;;5073241;28;19909;-66
2022/08/04 08:40:40;;;;;;;;;;;34.50;70.80;;;;;;5055319;28;19909;-66
2022/08/04 08:43:14;;;;;;;;;;;35.00;70.40;;;;;;5073055;28;20389;-66
2022/08/04 08:48:41;;;;;;;;;;;35.70;68.30;;;;;;5131920;27;19919;-64
2022/08/04 08:54:09;;;;;;;;;;;35.60;70.00;;;;;;5090974;27;19919;-66
2022/08/04 08:56:41;;;;;;;;;;;36.40;68.00;;;;;;5091055;28;20286;-67
2022/08/04 08:59:17;;;;;;;;;;;36.90;65.30;;;;;;5091250;28;19912;-64
2022/08/04 09:02:02;;;;;;;;;;;36.60;64.80;;;;;;5091092;28;19963;-64
2022/08/04 09:04:48;;;;;;;;;;;36.60;65.50;;;;;;5090923;28;19916;-66
2022/08/04 09:07:33;;;;;;;;;;;35.80;68.40;;;;;;5091013;28;19955;-67
2022/08/04 09:10:07;;;;;;;;;;;36.10;67.30;;;;;;5090725;28;19908;-66
2022/08/04 09:12:38;;;;;;;;;;;36.60;66.60;;;;;;5090536;28;19912;-66
2022/08/04 09:15:23;;;;;;;;;;;36.40;64.60;;;;;;5089268;28;19915;-67
2022/08/04 09:17:52;;;;;;;;;;;37.00;63.80;;;;;;5090601;28;19947;-64
2022/08/04 09:20:38;;;;;;;;;;;37.70;64.70;;;;;;5090452;28;19908;-67
2022/08/04 09:23:23;;;;;;;;;;;38.30;61.40;;;;;;5090408;28;19910;-66
2022/08/04 09:25:53;;;;;;;;;;;38.30;59.50;;;;;;5090542;28;19908;-67
2022/08/04 09:28:22;;;;;;;;;;;37.80;59.60;;;;;;5090361;28;20294;-67
2022/08/04 09:30:55;;;;;;;;;;;37.90;60.10;;;;;;5090595;28;19908;-67
2022/08/04 09:33:27;;;;;;;;;;;38.00;59.40;;;;;;5090306;28;19913;-67
2022/08/04 09:35:56;;;;;;;;;;;37.00;63.30;;;;;;5090488;28;20069;-67
2022/08/04 09:38:31;;;;;;;;;;;36.70;64.10;;;;;;5090137;28;19909;-67
2022/08/04 09:41:02;;;;;;;;;;;37.30;62.60;;;;;;5090434;28;19931;-66
2022/08/04 09:43:41;;;;;;;;;;;37.10;64.60;;;;;;5090036;28;20332;-67
2022/08/04 09:46:12;;;;;;;;;;;36.80;62.90;;;;;;5090116;28;19931;-67
2022/08/04 09:48:43;;;;;;;;;;;36.70;63.70;;;;;;5090302;28;19958;-66
2022/08/04 09:51:28;;;;;;;;;;;36.60;59.20;;;;;;5090231;28;20402;-66
2022/08/04 09:54:13;;;;;;;;;;;36.90;59.90;;;;;;5110254;28;19927;-67
2022/08/04 09:56:46;;;;;;;;;;;36.90;61.10;;;;;;5110101;28;19908;-67
2022/08/04 09:59:28;;;;;;;;;;;37.00;58.20;;;;;;5110100;28;19915;-66
2022/08/04 10:01:58;;;;;;;;;;;37.10;59.50;;;;;;5110274;28;19999;-66
2022/08/04 10:04:28;;;;;;;;;;;37.30;58.50;;;;;;5101006;28;19915;-67
2022/08/04 10:07:13;;;;;;;;;;;37.20;57.60;;;;;;5096370;28;19962;-67
2022/08/04 10:09:58;;;;;;;;;;;37.30;59.10;;;;;;5096312;28;19915;-66
2022/08/04 10:12:30;;;;;;;;;;;37.80;60.00;;;;;;5096113;28;19912;-67
2022/08/04 10:15:16;;;;;;;;;;;38.80;59.80;;;;;;5096588;28;19908;-66
2022/08/04 10:17:46;;;;;;;;;;;37.90;57.20;;;;;;5096130;28;19908;-66
2022/08/04 10:23:20;;;;;;;;;;;37.20;55.60;;;;;;5070967;28;19919;-66
2022/08/04 10:25:58;;;;;;;;;;;37.50;58.00;;;;;;5070798;28;19913;-67
2022/08/04 10:28:26;;;;;;;;;;;37.30;54.50;;;;;;5070676;28;20402;-66
2022/08/04 10:30:54;;;;;;;;;;;37.10;54.90;;;;;;5070946;28;20362;-67
2022/08/04 10:33:23;;;;;;;;;;;37.20;54.40;;;;;;5070645;28;19909;-67
2022/08/04 10:35:52;;;;;;;;;;;37.70;54.00;;;;;;5070611;28;19909;-66
2022/08/04 10:38:39;;;;;;;;;;;37.40;54.00;;;;;;5070837;28;19916;-66
2022/08/04 10:41:18;;;;;;;;;;;37.30;53.10;;;;;;5070609;28;19942;-66
2022/08/04 10:43:48;;;;;;;;;;;37.90;54.10;;;;;;5070287;28;19932;-66
2022/08/04 10:46:16;;;;;;;;;;;38.40;54.00;;;;;;5069225;28;20371;-66
2022/08/04 10:49:01;;;;;;;;;;;38.20;52.90;;;;;;5070420;28;19912;-66
2022/08/04 10:51:32;;;;;;;;;;;38.00;51.90;;;;;;5070208;28;19909;-67
2022/08/04 10:54:01;;;;;;;;;;;37.90;53.10;;;;;;5070517;28;19909;-66
2022/08/04 10:56:42;;;;;;;;;;;37.90;53.30;;;;;;5070483;28;20445;-66
2022/08/04 10:59:11;;;;;;;;;;;37.50;52.40;;;;;;5070248;28;19909;-66
2022/08/04 11:01:40;;;;;;;;;;;37.30;52.30;;;;;;5069982;28;19942;-66
2022/08/04 11:04:11;;;;;;;;;;;36.90;52.10;;;;;;5070318;28;19991;-67
2022/08/04 11:06:37;;;;;;;;;;;37.00;51.90;;;;;;5070475;28;19908;-67
2022/08/04 11:09:02;;;;;;;;;;;37.10;52.90;;;;;;5070248;28;20394;-65
2022/08/04 11:11:32;;;;;;;;;;;36.90;50.30;;;;;;5070163;28;19909;-65
2022/08/04 11:14:17;;;;;;;;;;;36.70;48.10;;;;;;5085430;28;19912;-65
2022/08/04 11:16:52;;;;;;;;;;;36.50;49.50;;;;;;5069727;28;19909;-66
2022/08/04 11:19:37;;;;;;;;;;;36.80;51.60;;;;;;5069689;28;19962;-66
2022/08/04 11:22:13;;;;;;;;;;;36.10;51.60;;;;;;5082102;28;20010;-66
2022/08/04 11:24:51;;;;;;;;;;;36.10;53.70;;;;;;5072087;28;20330;-67
2022/08/04 11:27:21;;;;;;;;;;;36.00;53.10;;;;;;5071619;28;20264;-66
2022/08/04 11:29:58;;;;;;;;;;;35.80;51.90;;;;;;5090142;28;20007;-65
2022/08/04 11:32:30;;;;;;;;;;;35.90;52.60;;;;;;5052925;28;20267;-66
2022/08/04 11:34:58;;;;;;;;;;;36.20;52.70;;;;;;5076282;28;20360;-66
2022/08/04 11:37:27;;;;;;;;;;;36.70;52.30;;;;;;5076485;28;20248;-66
2022/08/04 11:40:05;;;;;;;;;;;37.00;51.90;;;;;;5076417;28;19916;-66
2022/08/04 11:42:36;;;;;;;;;;;37.10;51.80;;;;;;5076335;28;20291;-66
2022/08/04 11:45:06;;;;;;;;;;;36.70;51.50;;;;;;5075994;28;19908;-66
2022/08/04 11:47:37;;;;;;;;;;;36.10;51.70;;;;;;5076253;28;20297;-66
2022/08/04 11:50:05;;;;;;;;;;;35.70;52.00;;;;;;5076263;28;19931;-66
2022/08/04 11:52:32;;;;;;;;;;;36.20;52.00;;;;;;5075971;28;19919;-66
2022/08/04 11:55:01;;;;;;;;;;;36.10;52.70;;;;;;5076111;28;19995;-66
2022/08/04 11:57:26;;;;;;;;;;;36.60;53.60;;;;;;5076146;28;19916;-66
2022/08/04 11:59:54;;;;;;;;;;;36.90;52.30;;;;;;5076087;28;19908;-66
2022/08/04 12:02:39;;;;;;;;;;;36.70;51.10;;;;;;5075956;28;19962;-66
2022/08/04 12:05:06;;;;;;;;;;;36.20;54.60;;;;;;5075579;28;19909;-66
2022/08/04 12:07:51;;;;;;;;;;;36.10;57.10;;;;;;5075664;28;19916;-66
2022/08/04 12:10:37;;;;;;;;;;;36.20;57.60;;;;;;5075503;28;20417;-66
2022/08/04 12:13:22;;;;;;;;;;;36.30;57.60;;;;;;5075304;28;19912;-66
2022/08/04 12:15:54;;;;;;;;;;;36.10;56.90;;;;;;5075150;28;19912;-66
2022/08/04 12:18:26;;;;;;;;;;;36.10;56.40;;;;;;5075382;28;19908;-66
2022/08/04 12:21:00;;;;;;;;;;;36.50;56.80;;;;;;5074849;28;20689;-66
2022/08/04 12:23:31;;;;;;;;;;;36.60;55.10;;;;;;5075561;28;19943;-66
2022/08/04 12:26:02;;;;;;;;;;;36.40;54.50;;;;;;5075556;28;20283;-66
2022/08/04 12:28:31;;;;;;;;;;;36.20;54.30;;;;;;5075511;28;20341;-66
2022/08/04 12:31:01;;;;;;;;;;;35.70;53.90;;;;;;5075153;28;19915;-66
2022/08/04 12:33:30;;;;;;;;;;;35.50;53.70;;;;;;5075123;28;19909;-66
2022/08/04 12:36:00;;;;;;;;;;;35.20;55.80;;;;;;5075377;28;19995;-66
2022/08/04 12:38:27;;;;;;;;;;;35.30;55.50;;;;;;5075035;28;19995;-67
2022/08/04 12:40:55;;;;;;;;;;;35.50;55.80;;;;;;5074854;28;19999;-66
2022/08/04 12:43:25;;;;;;;;;;;35.50;55.90;;;;;;5057158;28;20050;-67
2022/08/04 12:45:53;;;;;;;;;;;35.60;56.80;;;;;;5074142;28;20371;-66
2022/08/04 12:48:21;;;;;;;;;;;35.50;57.10;;;;;;5074958;28;20291;-66
2022/08/04 12:50:50;;;;;;;;;;;35.30;57.60;;;;;;5074954;28;19915;-66
2022/08/04 12:53:17;;;;;;;;;;;34.80;58.50;;;;;;5075087;28;19951;-66
2022/08/04 12:55:46;;;;;;;;;;;34.80;58.80;;;;;;5074675;28;19909;-66
2022/08/04 12:58:15;;;;;;;;;;;34.80;59.50;;;;;;5074930;28;19952;-66
2022/08/04 13:00:41;;;;;;;;;;;34.30;59.80;;;;;;5074831;28;20330;-66
2022/08/04 13:03:15;;;;;;;;;;;34.00;60.50;;;;;;5074611;28;19908;-66
2022/08/04 13:05:41;;;;;;;;;;;33.60;61.40;;;;;;5074355;28;19912;-66
2022/08/04 13:08:08;;;;;;;;;;;33.50;62.00;;;;;;5056753;28;19908;-66
2022/08/04 13:10:38;;;;;;;;;;;33.40;62.30;;;;;;5074630;28;19955;-66
2022/08/04 13:13:04;;;;;;;;;;;33.50;62.90;;;;;;5074232;28;19908;-66
2022/08/04 13:15:32;;;;;;;;;;;33.50;63.20;;;;;;5074203;28;19915;-66
2022/08/04 13:18:02;;;;;;;;;;;33.50;63.70;;;;;;5074534;28;20351;-66
2022/08/04 13:20:30;;;;;;;;;;;33.60;64.40;;;;;;5074147;28;19916;-66
2022/08/04 13:23:02;;;;;;;;;;;33.50;63.40;;;;;;5073895;28;20374;-66
2022/08/04 13:25:29;;;;;;;;;;;33.40;63.90;;;;;;5074329;28;19954;-66
2022/08/04 13:27:55;;;;;;;;;;;33.50;64.80;;;;;;5074376;28;19941;-66
2022/08/04 13:30:21;;;;;;;;;;;33.50;64.20;;;;;;5074018;28;19956;-66
2022/08/04 13:32:47;;;;;;;;;;;33.40;64.60;;;;;;5074007;28;19909;-66
2022/08/04 13:35:13;;;;;;;;;;;33.30;66.50;;;;;;5074162;28;19908;-65
2022/08/04 13:37:39;;;;;;;;;;;33.00;67.70;;;;;;5074089;28;19931;-65
2022/08/04 13:40:06;;;;;;;;;;;32.80;68.70;;;;;;5074061;28;19996;-65
2022/08/04 13:42:34;;;;;;;;;;;32.50;69.30;;;;;;5073520;28;19912;-65
2022/08/04 13:45:00;;;;;;;;;;;32.40;70.70;;;;;;5074035;28;19908;-65
2022/08/04 13:47:27;;;;;;;;;;;32.30;70.90;;;;;;5074080;28;19912;-65
2022/08/04 13:50:13;;;;;;;;;;;31.90;72.40;;;;;;5074123;28;20314;-67
2022/08/04 13:52:40;;;;;;;;;;;31.70;72.00;;;;;;5073768;28;20007;-67
2022/08/04 13:55:06;;;;;;;;;;;31.60;72.10;;;;;;5074079;28;19908;-67
2022/08/04 13:57:34;;;;;;;;;;;31.30;72.90;;;;;;5073807;28;20056;-67
2022/08/04 14:00:04;;;;;;;;;;;31.30;73.40;;;;;;5073703;28;20393;-67
2022/08/04 14:02:33;;;;;;;;;;;31.40;73.50;;;;;;5073716;28;20385;-67
2022/08/04 14:05:03;;;;;;;;;;;31.40;74.20;;;;;;5073781;28;19909;-69
2022/08/04 14:07:30;;;;;;;;;;;31.60;74.80;;;;;;5073743;28;19916;-68
2022/08/04 14:09:55;;;;;;;;;;;31.70;75.20;;;;;;5073868;28;19908;-68
2022/08/04 14:12:21;;;;;;;;;;;31.40;76.40;;;;;;5073504;28;20298;-68
2022/08/04 14:14:48;;;;;;;;;;;31.40;77.50;;;;;;5073702;28;19908;-66
2022/08/04 14:17:16;;;;;;;;;;;31.20;78.60;;;;;;5073813;28;20279;-67
2022/08/04 14:19:57;;;;;;;;;;;31.20;80.30;;;;;;5073569;28;19913;-67
2022/08/04 14:22:27;;;;;;;;;;;31.00;80.70;;;;;;5073333;28;20388;-67
2022/08/04 14:25:12;;;;;;;;;;;30.70;81.80;;;;;;5073853;28;19908;-67
2022/08/04 14:27:54;;;;;;;;;;;30.70;82.30;;;;;;5073631;28;20318;-67
2022/08/04 14:30:31;;;;;;;;;;;30.60;83.30;;;;;;5073596;28;19908;-67
2022/08/04 14:33:02;;;;;;;;;;;30.60;83.50;;;;;;5073553;28;19909;-67
2022/08/04 14:35:28;;;;;;;;;;;30.70;83.40;;;;;;5073535;28;20415;-67
2022/08/04 14:37:55;;;;;;;;;;;30.70;84.30;;;;;;5073496;28;20397;-67
2022/08/04 14:40:23;;;;;;;;;;;30.90;84.20;;;;;;5073502;28;20031;-67
2022/08/04 14:42:48;;;;;;;;;;;30.90;84.60;;;;;;5073165;28;19963;-67
2022/08/04 14:45:13;;;;;;;;;;;31.00;84.20;;;;;;5073478;28;19915;-67
2022/08/04 14:47:40;;;;;;;;;;;31.00;83.80;;;;;;5073227;28;20279;-67
2022/08/04 14:50:07;;;;;;;;;;;31.00;83.30;;;;;;5073408;28;19958;-67
2022/08/04 14:52:32;;;;;;;;;;;30.90;84.00;;;;;;5073062;28;19908;-67
2022/08/04 14:55:13;;;;;;;;;;;31.10;85.40;;;;;;5073114;28;19915;-68
2022/08/04 14:57:39;;;;;;;;;;;31.10;83.10;;;;;;5072952;28;19909;-68
2022/08/04 15:00:04;;;;;;;;;;;31.40;83.00;;;;;;5073056;28;19915;-69
2022/08/04 15:02:31;;;;;;;;;;;31.40;83.20;;;;;;5072968;28;19919;-67
2022/08/04 15:04:57;;;;;;;;;;;31.40;84.20;;;;;;5073250;28;19989;-67
2022/08/04 15:07:23;;;;;;;;;;;31.30;82.40;;;;;;5073262;28;20415;-68
2022/08/04 15:09:49;;;;;;;;;;;31.20;84.10;;;;;;5076791;28;19909;-67
2022/08/04 15:12:14;;;;;;;;;;;31.20;83.20;;;;;;5059090;28;19962;-67